createdAt,value
2022-11-23T00:01:36.120Z,4.70
2022-11-23T00:04:07.816Z,4.60
2022-11-23T00:06:37.333Z,4.60
2022-11-23T00:09:06.539Z,4.70
2022-11-23T00:11:37.165Z,4.60
2022-11-23T00:14:05.758Z,4.70
2022-11-23T00:16:34.138Z,4.60
2022-11-23T00:19:03.530Z,4.60
2022-11-23T00:21:33.678Z,4.70
2022-11-23T00:24:02.191Z,4.70
2022-11-23T00:26:30.311Z,4.60
2022-11-23T00:28:59.926Z,4.60
2022-11-23T00:31:28.608Z,4.60
2022-11-23T00:33:58.322Z,4.60
2022-11-23T00:36:28.591Z,4.60
2022-11-23T00:38:57.885Z,4.60
2022-11-23T00:41:28.726Z,4.60
2022-11-23T00:43:57.159Z,4.60
2022-11-23T00:46:28.764Z,4.60
2022-11-23T00:48:58.493Z,4.60
2022-11-23T00:51:30.529Z,4.60
2022-11-23T00:54:00.179Z,4.60
2022-11-23T00:56:28.695Z,4.50
2022-11-23T00:58:59.595Z,4.50
2022-11-23T01:01:33.847Z,4.50
2022-11-23T01:04:04.250Z,4.60
2022-11-23T01:06:35.813Z,4.50
2022-11-23T01:09:15.997Z,4.50
2022-11-23T01:11:44.571Z,4.50
2022-11-23T01:14:13.058Z,4.50
2022-11-23T01:16:43.318Z,4.50
2022-11-23T01:19:15.207Z,4.50
2022-11-23T01:21:43.777Z,4.50
2022-11-23T01:24:17.761Z,4.40
2022-11-23T01:26:46.544Z,4.40
2022-11-23T01:29:14.613Z,4.40
2022-11-23T01:31:46.820Z,4.40
2022-11-23T01:34:19.161Z,4.40
2022-11-23T01:36:47.423Z,4.40
2022-11-23T01:39:16.799Z,4.50
2022-11-23T01:41:47.117Z,4.40
2022-11-23T01:44:39.626Z,4.40
2022-11-23T01:47:10.765Z,4.40
2022-11-23T01:49:43.006Z,4.40
2022-11-23T01:52:16.545Z,4.40
2022-11-23T01:54:49.544Z,4.40
2022-11-23T01:57:25.634Z,4.40
2022-11-23T01:59:56.273Z,4.40
2022-11-23T02:02:30.988Z,4.50
2022-11-23T02:05:03.108Z,4.50
2022-11-23T02:07:33.277Z,4.50
2022-11-23T02:10:02.218Z,4.50
2022-11-23T02:12:31.140Z,4.50
2022-11-23T02:14:59.219Z,4.50
2022-11-23T02:17:28.712Z,4.50
2022-11-23T02:20:08.571Z,4.50
2022-11-23T02:22:50.469Z,4.50
2022-11-23T02:25:31.863Z,4.50
2022-11-23T02:28:02.505Z,4.50
2022-11-23T02:30:32.619Z,4.50
2022-11-23T02:33:00.707Z,4.50
2022-11-23T02:35:28.787Z,4.60
2022-11-23T02:37:57.068Z,4.60
2022-11-23T02:40:32.916Z,4.60
2022-11-23T02:43:03.596Z,4.70
2022-11-23T02:45:39.838Z,4.60
2022-11-23T02:48:08.053Z,4.60
2022-11-23T02:50:38.922Z,4.60
2022-11-23T02:53:09.409Z,4.60
2022-11-23T02:55:38.023Z,4.60
2022-11-23T02:58:08.400Z,4.60
2022-11-23T03:00:37.215Z,4.60
2022-11-23T03:03:05.480Z,4.60
2022-11-23T03:05:34.428Z,4.60
2022-11-23T03:08:06.797Z,4.60
2022-11-23T03:10:35.711Z,4.60
2022-11-23T03:13:03.809Z,4.70
2022-11-23T03:15:37.898Z,4.70
2022-11-23T03:18:07.301Z,4.70
2022-11-23T03:20:36.584Z,4.60
2022-11-23T03:23:05.904Z,4.70
2022-11-23T03:25:34.132Z,4.70
2022-11-23T03:28:04.527Z,4.70
2022-11-23T03:30:34.319Z,4.70
2022-11-23T03:33:06.370Z,4.70
2022-11-23T03:35:34.809Z,4.70
2022-11-23T03:38:20.487Z,4.70
2022-11-23T03:40:50.191Z,4.70
2022-11-23T03:43:26.722Z,4.70
2022-11-23T03:45:54.876Z,4.70
2022-11-23T03:48:25.038Z,4.70
2022-11-23T03:50:53.931Z,4.70
2022-11-23T03:53:22.029Z,4.70
2022-11-23T03:55:50.094Z,4.70
2022-11-23T03:58:18.587Z,4.70
2022-11-23T04:00:47.693Z,4.70
2022-11-23T04:03:17.027Z,4.80
2022-11-23T04:06:13.446Z,4.70
2022-11-23T04:09:02.302Z,4.70
2022-11-23T04:11:50.892Z,4.70
2022-11-23T04:14:20.458Z,4.70
2022-11-23T04:16:49.411Z,4.60
2022-11-23T04:19:17.544Z,4.60
2022-11-23T04:21:47.010Z,4.70
2022-11-23T04:24:15.988Z,4.60
2022-11-23T04:26:46.462Z,4.60
2022-11-23T04:29:14.673Z,4.60
2022-11-23T04:31:47.753Z,4.60
2022-11-23T04:34:19.450Z,4.60
2022-11-23T04:36:50.963Z,4.60
2022-11-23T04:39:21.930Z,4.60
2022-11-23T04:42:08.543Z,4.60
2022-11-23T04:44:36.752Z,4.50
2022-11-23T04:47:06.736Z,4.60
2022-11-23T04:49:38.200Z,4.50
2022-11-23T04:52:07.896Z,4.50
2022-11-23T04:54:42.689Z,4.50
2022-11-23T04:57:11.179Z,4.60
2022-11-23T04:59:40.377Z,4.60
2022-11-23T05:02:08.887Z,4.60
2022-11-23T05:04:44.452Z,4.60
2022-11-23T05:07:15.214Z,4.60
2022-11-23T05:09:46.582Z,4.60
2022-11-23T05:12:18.263Z,4.60
2022-11-23T05:14:46.481Z,4.60
2022-11-23T05:17:19.894Z,4.60
2022-11-23T05:19:49.568Z,4.60
2022-11-23T05:22:19.141Z,4.60
2022-11-23T05:24:47.471Z,4.60
2022-11-23T05:27:19.604Z,4.60
2022-11-23T05:29:47.735Z,4.60
2022-11-23T05:32:16.178Z,4.60
2022-11-23T05:34:44.464Z,4.60
2022-11-23T05:37:15.392Z,4.60
2022-11-23T05:39:53.845Z,4.70
2022-11-23T05:42:24.842Z,4.60
2022-11-23T05:44:56.612Z,4.60
2022-11-23T05:47:33.396Z,4.60
2022-11-23T05:50:04.694Z,4.60
2022-11-23T05:52:33.963Z,4.60
2022-11-23T05:55:03.427Z,4.60
2022-11-23T05:57:31.564Z,4.60
2022-11-23T05:59:59.890Z,4.60
2022-11-23T06:02:41.339Z,4.60
2022-11-23T06:05:11.087Z,4.60
2022-11-23T06:07:47.619Z,4.60
2022-11-23T06:10:17.420Z,4.60
2022-11-23T06:12:49.950Z,4.70
2022-11-23T06:15:20.034Z,4.70
2022-11-23T06:17:49.537Z,4.70
2022-11-23T06:20:21.684Z,4.70
2022-11-23T06:22:58.112Z,4.60
2022-11-23T06:25:28.975Z,4.60
2022-11-23T06:28:06.801Z,4.70
2022-11-23T06:30:43.420Z,4.70
2022-11-23T06:33:11.659Z,4.70
2022-11-23T06:35:55.013Z,4.70
2022-11-23T06:38:25.117Z,4.70
2022-11-23T06:41:03.479Z,4.60
2022-11-23T06:43:32.662Z,4.70
2022-11-23T06:46:06.779Z,4.70
2022-11-23T06:48:38.785Z,4.70
2022-11-23T06:51:08.234Z,4.80
2022-11-23T06:53:38.592Z,4.80
2022-11-23T06:56:11.076Z,4.90
2022-11-23T06:58:40.063Z,4.90
2022-11-23T07:01:13.530Z,5.00
2022-11-23T07:03:58.898Z,4.90
2022-11-23T07:06:30.735Z,4.90
2022-11-23T07:09:02.850Z,4.90
2022-11-23T07:12:01.628Z,4.90
2022-11-23T07:14:29.814Z,4.90
2022-11-23T07:16:58.365Z,4.90
2022-11-23T07:19:26.613Z,4.90
2022-11-23T07:21:58.214Z,4.80
2022-11-23T07:24:27.222Z,4.80
2022-11-23T07:26:55.324Z,4.80
2022-11-23T07:29:24.883Z,4.80
2022-11-23T07:31:53.652Z,4.80
2022-11-23T07:34:25.571Z,4.90
2022-11-23T07:36:56.818Z,4.90
2022-11-23T07:39:54.981Z,4.90
2022-11-23T07:42:32.748Z,4.90
2022-11-23T07:45:05.387Z,5.00
2022-11-23T07:47:34.144Z,5.00
2022-11-23T07:50:02.258Z,5.00
2022-11-23T07:52:30.523Z,5.00
2022-11-23T07:55:00.207Z,5.00
2022-11-23T07:57:28.899Z,5.00
2022-11-23T07:59:57.006Z,5.10
2022-11-23T08:02:26.581Z,5.20
2022-11-23T08:04:55.462Z,5.20
2022-11-23T08:07:23.675Z,5.20
2022-11-23T08:09:51.857Z,5.20
2022-11-23T08:12:19.909Z,5.30
2022-11-23T08:14:47.978Z,5.40
2022-11-23T08:17:16.082Z,5.40
2022-11-23T08:19:45.463Z,5.40
2022-11-23T08:22:15.836Z,5.40
2022-11-23T08:24:44.200Z,5.50
2022-11-23T08:27:12.455Z,5.50
2022-11-23T08:29:40.492Z,5.50
2022-11-23T08:32:08.540Z,5.50
2022-11-23T08:34:37.624Z,5.50
2022-11-23T08:37:07.020Z,5.60
2022-11-23T08:39:35.123Z,5.60
2022-11-23T08:42:03.307Z,5.60
2022-11-23T08:44:31.630Z,5.60
2022-11-23T08:46:59.992Z,5.50
2022-11-23T08:49:28.116Z,5.50
2022-11-23T08:51:56.231Z,5.60
2022-11-23T08:54:25.707Z,5.50
2022-11-23T08:56:54.142Z,5.60
2022-11-23T08:59:22.620Z,5.60
2022-11-23T09:01:50.761Z,5.60
2022-11-23T09:04:20.868Z,5.70
2022-11-23T09:06:49.238Z,5.70
2022-11-23T09:09:17.292Z,5.70
2022-11-23T09:11:46.740Z,5.70
2022-11-23T09:14:15.090Z,5.80
2022-11-23T09:16:43.156Z,5.80
2022-11-23T09:19:14.869Z,5.80
2022-11-23T09:21:43.258Z,5.90
2022-11-23T09:24:12.616Z,6.00
2022-11-23T09:26:41.747Z,6.10
2022-11-23T09:29:11.397Z,6.10
2022-11-23T09:31:39.843Z,6.20
2022-11-23T09:34:07.961Z,6.40
2022-11-23T09:36:36.028Z,6.40
2022-11-23T09:39:04.322Z,6.50
2022-11-23T09:42:14.368Z,6.50
2022-11-23T09:45:09.716Z,6.60
2022-11-23T09:48:00.962Z,6.60
2022-11-23T09:50:36.161Z,6.70
2022-11-23T09:53:13.257Z,6.60
2022-11-23T09:55:45.640Z,6.70
2022-11-23T09:58:18.903Z,6.70
2022-11-23T10:00:53.476Z,6.70
2022-11-23T10:03:21.571Z,6.70
2022-11-23T10:06:03.609Z,6.70
2022-11-23T10:08:46.065Z,6.80
2022-11-23T10:11:40.033Z,6.80
2022-11-23T10:14:29.732Z,6.80
2022-11-23T10:17:20.994Z,6.90
2022-11-23T10:20:16.630Z,7.00
2022-11-23T10:22:57.832Z,7.10
2022-11-23T10:25:28.742Z,7.20
2022-11-23T10:28:03.103Z,7.30
2022-11-23T10:30:31.184Z,7.30
2022-11-23T10:33:14.622Z,7.30
2022-11-23T10:35:42.670Z,7.20
2022-11-23T10:38:18.403Z,7.10
2022-11-23T10:41:03.503Z,7.20
2022-11-23T10:43:40.075Z,7.10
2022-11-23T10:46:29.206Z,7.20
2022-11-23T10:49:16.223Z,7.30
2022-11-23T10:51:53.576Z,7.20
2022-11-23T10:54:30.758Z,7.20
2022-11-23T10:57:01.789Z,7.30
2022-11-23T10:59:35.114Z,7.30
2022-11-23T11:02:25.404Z,7.30
2022-11-23T11:05:40.235Z,7.30
2022-11-23T11:08:17.915Z,7.40
2022-11-23T11:10:50.407Z,7.40
2022-11-23T11:13:29.806Z,7.30
2022-11-23T11:16:01.171Z,7.30
2022-11-23T11:18:34.343Z,7.40
2022-11-23T11:21:07.660Z,7.50
2022-11-23T11:23:39.914Z,7.70
2022-11-23T11:26:19.679Z,7.80
2022-11-23T11:28:52.412Z,7.90
2022-11-23T11:31:46.170Z,7.90
2022-11-23T11:34:26.177Z,8.00
2022-11-23T11:37:09.692Z,8.10
2022-11-23T11:39:46.822Z,8.30
2022-11-23T11:42:21.984Z,8.30
2022-11-23T11:44:56.129Z,8.20
2022-11-23T11:47:32.755Z,8.00
2022-11-23T11:50:11.824Z,7.80
2022-11-23T11:52:45.659Z,7.70
2022-11-23T11:55:22.123Z,7.70
2022-11-23T11:58:04.116Z,7.70
2022-11-23T12:00:42.170Z,7.90
2022-11-23T12:03:24.079Z,8.20
2022-11-23T12:05:55.513Z,8.20
2022-11-23T12:08:36.877Z,8.10
2022-11-23T12:11:06.667Z,8.00
2022-11-23T12:13:38.016Z,7.90
2022-11-23T12:16:23.349Z,7.80
2022-11-23T12:19:12.654Z,7.70
2022-11-23T12:22:29.709Z,7.70
2022-11-23T12:25:23.715Z,7.90
2022-11-23T12:28:10.689Z,7.90
2022-11-23T12:30:50.919Z,7.90
2022-11-23T12:33:46.822Z,8.10
2022-11-23T12:36:46.755Z,8.50
2022-11-23T12:39:41.249Z,9.00
2022-11-23T12:42:21.930Z,9.70
2022-11-23T12:45:19.699Z,10.10
2022-11-23T12:48:00.675Z,11.00
2022-11-23T12:50:36.337Z,12.20
2022-11-23T12:53:27.451Z,11.50
2022-11-23T12:56:07.904Z,10.90
2022-11-23T12:58:40.573Z,10.40
2022-11-23T13:01:16.999Z,10.70
2022-11-23T13:04:33.876Z,10.60
2022-11-23T13:07:59.063Z,10.50
2022-11-23T13:10:46.645Z,10.30
2022-11-23T13:13:49.217Z,9.20
2022-11-23T13:16:39.792Z,9.80
2022-11-23T13:19:37.382Z,9.90
2022-11-23T13:22:07.243Z,10.40
2022-11-23T13:24:40.459Z,10.30
2022-11-23T13:27:55.030Z,9.90
2022-11-23T13:30:59.342Z,10.10
2022-11-23T13:33:38.490Z,10.50
2022-11-23T13:36:16.653Z,11.00
2022-11-23T13:38:47.710Z,10.90
2022-11-23T13:42:00.515Z,10.80
2022-11-23T13:44:33.072Z,10.50
2022-11-23T13:47:08.090Z,10.90
2022-11-23T13:49:42.774Z,10.70
2022-11-23T13:52:32.245Z,10.30
2022-11-23T13:55:19.544Z,10.20
2022-11-23T13:58:40.252Z,9.80
2022-11-23T14:01:09.491Z,9.50
2022-11-23T14:03:52.458Z,9.40
2022-11-23T14:06:46.615Z,9.40
2022-11-23T14:09:24.679Z,9.20
2022-11-23T14:12:05.756Z,9.30
2022-11-23T14:14:50.947Z,9.00
2022-11-23T14:18:00.555Z,8.80
2022-11-23T14:20:52.348Z,8.50
2022-11-23T14:24:14.181Z,8.40
2022-11-23T14:27:12.320Z,8.40
2022-11-23T14:30:06.802Z,8.00
2022-11-23T14:32:56.569Z,7.70
2022-11-23T14:35:38.750Z,7.50
2022-11-23T14:38:52.930Z,7.50
2022-11-23T14:41:24.953Z,7.30
2022-11-23T14:43:54.978Z,7.30
2022-11-23T14:46:25.821Z,7.20
2022-11-23T14:49:05.910Z,7.20
2022-11-23T14:51:46.040Z,7.10
2022-11-23T14:54:18.211Z,7.10
2022-11-23T14:56:50.308Z,7.00
2022-11-23T14:59:25.724Z,6.90
2022-11-23T15:01:59.396Z,6.90
2022-11-23T15:04:35.106Z,6.90
2022-11-23T15:07:12.650Z,6.80
2022-11-23T15:09:51.972Z,6.70
2022-11-23T15:12:26.565Z,6.70
2022-11-23T15:14:57.310Z,6.70
2022-11-23T15:17:25.821Z,6.60
2022-11-23T15:19:59.166Z,6.60
2022-11-23T15:22:31.155Z,6.70
2022-11-23T15:25:08.345Z,6.60
2022-11-23T15:27:42.080Z,6.50
2022-11-23T15:30:18.635Z,6.50
2022-11-23T15:32:57.682Z,6.40
2022-11-23T15:35:33.067Z,6.30
2022-11-23T15:38:04.347Z,6.30
2022-11-23T15:40:37.384Z,6.30
2022-11-23T15:43:05.599Z,6.20
2022-11-23T15:45:39.986Z,6.20
2022-11-23T15:48:14.510Z,6.10
2022-11-23T15:50:52.397Z,6.10
2022-11-23T15:53:26.509Z,6.10
2022-11-23T15:55:57.571Z,6.00
2022-11-23T15:58:26.083Z,5.90
2022-11-23T16:01:06.806Z,5.90
2022-11-23T16:03:42.438Z,5.90
2022-11-23T16:06:20.931Z,5.80
2022-11-23T16:08:50.518Z,5.80
2022-11-23T16:11:30.937Z,5.80
2022-11-23T16:14:18.582Z,5.80
2022-11-23T16:16:49.419Z,5.80
2022-11-23T16:19:31.451Z,5.70
2022-11-23T16:22:03.447Z,5.70
2022-11-23T16:24:36.561Z,5.70
2022-11-23T16:27:14.769Z,5.70
2022-11-23T16:29:43.424Z,5.70
2022-11-23T16:32:25.570Z,5.70
2022-11-23T16:34:54.406Z,5.60
2022-11-23T16:37:23.315Z,5.60
2022-11-23T16:39:52.790Z,5.60
2022-11-23T16:42:20.856Z,5.60
2022-11-23T16:44:48.902Z,5.60
2022-11-23T16:47:26.196Z,5.60
2022-11-23T16:49:55.521Z,5.60
2022-11-23T16:52:24.576Z,5.60
2022-11-23T16:54:54.235Z,5.60
2022-11-23T16:57:30.311Z,5.50
2022-11-23T17:00:02.523Z,5.50
2022-11-23T17:02:30.616Z,5.50
2022-11-23T17:04:58.781Z,5.50
2022-11-23T17:07:27.032Z,5.50
2022-11-23T17:09:59.078Z,5.40
2022-11-23T17:12:27.199Z,5.40
2022-11-23T17:14:55.342Z,5.40
2022-11-23T17:17:24.078Z,5.40
2022-11-23T17:19:52.946Z,5.40
2022-11-23T17:22:21.612Z,5.40
2022-11-23T17:24:52.626Z,5.30
2022-11-23T17:27:25.299Z,5.30
2022-11-23T17:30:00.575Z,5.30
2022-11-23T17:32:29.306Z,5.30
2022-11-23T17:34:57.355Z,5.20
2022-11-23T17:37:26.254Z,5.20
2022-11-23T17:39:54.355Z,5.20
2022-11-23T17:42:23.802Z,5.20
2022-11-23T17:44:51.917Z,5.10
2022-11-23T17:47:26.245Z,5.20
2022-11-23T17:49:54.316Z,5.10
2022-11-23T17:52:22.773Z,5.00
2022-11-23T17:54:50.903Z,5.10
2022-11-23T17:57:27.037Z,5.00
2022-11-23T17:59:59.295Z,4.90
2022-11-23T18:02:39.874Z,4.90
2022-11-23T18:05:08.865Z,4.90
2022-11-23T18:07:37.333Z,4.80
2022-11-23T18:10:06.275Z,4.90
2022-11-23T18:12:35.662Z,4.80
2022-11-23T18:15:04.176Z,4.80
2022-11-23T18:17:32.229Z,4.80
2022-11-23T18:20:00.398Z,4.80
2022-11-23T18:22:28.524Z,4.90
2022-11-23T18:24:56.577Z,4.90
2022-11-23T18:27:24.646Z,4.90
2022-11-23T18:29:54.027Z,4.90
2022-11-23T18:32:22.174Z,4.90
2022-11-23T18:34:50.231Z,4.90
2022-11-23T18:37:18.281Z,4.90
2022-11-23T18:39:46.390Z,4.90
2022-11-23T18:42:15.049Z,4.90
2022-11-23T18:44:43.166Z,4.80
2022-11-23T18:47:12.528Z,4.80
2022-11-23T18:49:40.610Z,4.80
2022-11-23T18:52:09.093Z,4.70
2022-11-23T18:54:37.586Z,4.60
2022-11-23T18:57:05.851Z,4.60
2022-11-23T19:02:23.642Z,4.50
2022-11-23T19:04:51.733Z,4.40
2022-11-23T19:07:25.104Z,4.40
2022-11-23T19:09:54.838Z,4.40
2022-11-23T19:12:23.011Z,4.20
2022-11-23T19:14:51.099Z,4.20
2022-11-23T19:17:19.323Z,4.10
2022-11-23T19:19:48.738Z,4.20
2022-11-23T19:22:16.835Z,4.10
2022-11-23T19:24:45.012Z,4.10
2022-11-23T19:27:13.053Z,4.10
2022-11-23T19:29:41.112Z,4.10
2022-11-23T19:32:09.347Z,4.10
2022-11-23T19:34:37.424Z,4.20
2022-11-23T19:37:06.830Z,4.20
2022-11-23T19:39:36.148Z,4.10
2022-11-23T19:42:04.572Z,4.10
2022-11-23T19:44:32.684Z,4.20
2022-11-23T19:47:01.985Z,4.10
2022-11-23T19:49:31.409Z,4.10
2022-11-23T19:51:59.812Z,4.10
2022-11-23T19:54:29.306Z,4.10
2022-11-23T19:56:57.419Z,4.00
2022-11-23T19:59:27.222Z,4.00
2022-11-23T20:01:55.316Z,4.00
2022-11-23T20:04:23.403Z,4.00
2022-11-23T20:06:51.587Z,4.00
2022-11-23T20:09:21.067Z,4.00
2022-11-23T20:11:51.803Z,4.10
2022-11-23T20:14:20.274Z,4.10
2022-11-23T20:16:48.735Z,4.10
2022-11-23T20:19:16.879Z,4.10
2022-11-23T20:21:45.040Z,4.10
2022-11-23T20:24:15.010Z,4.10
2022-11-23T20:26:44.107Z,4.20
2022-11-23T20:29:14.678Z,4.20
2022-11-23T20:31:42.987Z,4.10
2022-11-23T20:34:16.734Z,4.10
2022-11-23T20:36:48.126Z,4.10
2022-11-23T20:39:16.410Z,4.10
2022-11-23T20:41:45.011Z,4.00
2022-11-23T20:44:15.666Z,3.90
2022-11-23T20:49:33.362Z,3.90
2022-11-23T20:52:02.658Z,3.80
2022-11-23T20:54:30.825Z,3.80
2022-11-23T20:57:00.332Z,3.80
2022-11-23T20:59:30.259Z,3.70
2022-11-23T21:01:58.509Z,3.80
2022-11-23T21:04:27.037Z,3.80
2022-11-23T21:06:55.583Z,3.80
2022-11-23T21:09:23.713Z,3.80
2022-11-23T21:12:09.211Z,3.70
2022-11-23T21:14:38.802Z,3.70
2022-11-23T21:17:07.097Z,3.80
2022-11-23T21:19:37.539Z,3.80
2022-11-23T21:22:07.847Z,3.80
2022-11-23T21:24:36.672Z,3.80
2022-11-23T21:27:07.211Z,3.80
2022-11-23T21:29:35.835Z,3.80
2022-11-23T21:32:05.993Z,3.80
2022-11-23T21:34:34.598Z,3.80
2022-11-23T21:37:02.908Z,3.90
2022-11-23T21:39:32.282Z,3.90
2022-11-23T21:42:00.458Z,3.90
2022-11-23T21:44:28.540Z,3.90
2022-11-23T21:46:56.732Z,3.90
2022-11-23T21:49:28.302Z,4.00
2022-11-23T21:51:56.358Z,3.90
2022-11-23T21:54:24.433Z,4.00
2022-11-23T21:56:52.502Z,4.00
2022-11-23T21:59:20.561Z,4.00
2022-11-23T22:01:48.638Z,4.00
2022-11-23T22:04:17.045Z,4.00
2022-11-23T22:06:46.588Z,4.00
2022-11-23T22:09:15.566Z,3.90
2022-11-23T22:11:45.599Z,4.00
2022-11-23T22:14:18.327Z,3.90
2022-11-23T22:16:49.531Z,3.90
2022-11-23T22:19:18.703Z,3.90
2022-11-23T22:21:48.198Z,3.90
2022-11-23T22:24:18.496Z,3.80
2022-11-23T22:26:48.525Z,3.80
2022-11-23T22:29:17.209Z,3.80
2022-11-23T22:31:45.378Z,3.70
2022-11-23T22:34:15.290Z,3.70
2022-11-23T22:36:43.620Z,3.70
2022-11-23T22:39:13.026Z,3.70
2022-11-23T22:41:41.079Z,3.70
2022-11-23T22:44:11.282Z,3.60
2022-11-23T22:46:40.451Z,3.60
2022-11-23T22:49:08.699Z,3.60
2022-11-23T22:51:36.881Z,3.60
2022-11-23T22:54:05.490Z,3.70
2022-11-23T22:56:34.932Z,3.70
2022-11-23T22:59:03.291Z,3.70
2022-11-23T23:01:32.545Z,3.80
2022-11-23T23:04:02.973Z,3.70
2022-11-23T23:06:34.735Z,3.70
2022-11-23T23:09:06.640Z,3.70
2022-11-23T23:11:37.206Z,3.80
2022-11-23T23:14:05.652Z,3.80
2022-11-23T23:16:34.036Z,3.80
2022-11-23T23:19:03.397Z,3.80
2022-11-23T23:21:31.567Z,3.90
2022-11-23T23:24:01.364Z,3.90
2022-11-23T23:26:30.357Z,4.00
2022-11-23T23:29:01.675Z,4.00
2022-11-23T23:31:30.808Z,4.10
2022-11-23T23:34:00.849Z,4.10
2022-11-23T23:36:29.507Z,4.10
2022-11-23T23:38:58.188Z,4.10
2022-11-23T23:41:26.302Z,4.10
2022-11-23T23:43:54.370Z,4.20
2022-11-23T23:46:23.895Z,4.20
2022-11-23T23:48:52.119Z,4.20
2022-11-23T23:51:23.249Z,4.20
2022-11-23T23:53:52.756Z,4.30
2022-11-23T23:56:23.335Z,4.30
2022-11-23T23:58:52.037Z,4.30
